sensor_id;sensor_type;location;lat;lon;timestamp;pressure;altitude;pressure_sealevel;temperature;humidity
60212;BME280;46079;48.686;15.598;2023-04-25T00:01:30;99104.06;;;20.68;47.57
60212;BME280;46079;48.686;15.598;2023-04-25T00:03:57;99097.00;;;20.68;47.84
60212;BME280;46079;48.686;15.598;2023-04-25T00:06:22;99091.09;;;20.66;47.83
60212;BME280;46079;48.686;15.598;2023-04-25T00:08:52;99090.78;;;20.69;47.75
60212;BME280;46079;48.686;15.598;2023-04-25T00:11:18;99092.56;;;20.69;47.79
60212;BME280;46079;48.686;15.598;2023-04-25T00:13:43;99090.78;;;20.69;47.84
60212;BME280;46079;48.686;15.598;2023-04-25T00:16:09;99088.13;;;20.69;47.87
60212;BME280;46079;48.686;15.598;2023-04-25T00:18:34;99087.31;;;20.69;47.97
60212;BME280;46079;48.686;15.598;2023-04-25T00:20:59;99089.78;;;20.70;47.99
60212;BME280;46079;48.686;15.598;2023-04-25T00:23:25;99098.50;;;20.71;48.09
60212;BME280;46079;48.686;15.598;2023-04-25T00:25:51;99088.81;;;20.71;47.91
60212;BME280;46079;48.686;15.598;2023-04-25T00:28:17;99088.81;;;20.71;47.94
60212;BME280;46079;48.686;15.598;2023-04-25T00:30:43;99086.19;;;20.71;48.12
60212;BME280;46079;48.686;15.598;2023-04-25T00:33:08;99084.38;;;20.72;48.10
60212;BME280;46079;48.686;15.598;2023-04-25T00:35:35;99081.88;;;20.70;48.17
60212;BME280;46079;48.686;15.598;2023-04-25T00:38:00;99091.44;;;20.71;47.97
60212;BME280;46079;48.686;15.598;2023-04-25T00:40:26;99079.94;;;20.72;48.08
60212;BME280;46079;48.686;15.598;2023-04-25T00:42:52;99076.50;;;20.72;48.11
60212;BME280;46079;48.686;15.598;2023-04-25T00:45:18;99085.19;;;20.72;48.03
60212;BME280;46079;48.686;15.598;2023-04-25T00:47:44;99085.19;;;20.72;48.04
60212;BME280;46079;48.686;15.598;2023-04-25T00:50:11;99079.94;;;20.72;48.03
60212;BME280;46079;48.686;15.598;2023-04-25T00:52:43;99085.19;;;20.72;48.10
60212;BME280;46079;48.686;15.598;2023-04-25T00:55:08;99079.94;;;20.72;48.06
60212;BME280;46079;48.686;15.598;2023-04-25T00:57:35;99075.50;;;20.73;48.22
60212;BME280;46079;48.686;15.598;2023-04-25T01:00:01;99079.94;;;20.72;48.17
60212;BME280;46079;48.686;15.598;2023-04-25T01:02:26;99087.81;;;20.72;47.89
60212;BME280;46079;48.686;15.598;2023-04-25T01:04:52;99078.13;;;20.73;48.36
60212;BME280;46079;48.686;15.598;2023-04-25T01:07:18;99069.41;;;20.72;48.20
60212;BME280;46079;48.686;15.598;2023-04-25T01:09:44;99072.88;;;20.73;48.22
60212;BME280;46079;48.686;15.598;2023-04-25T01:12:09;99074.69;;;20.72;48.20
60212;BME280;46079;48.686;15.598;2023-04-25T01:14:35;99076.31;;;20.73;48.16
60212;BME280;46079;48.686;15.598;2023-04-25T01:17:01;99075.66;;;20.71;48.36
60212;BME280;46079;48.686;15.598;2023-04-25T01:19:26;99073.84;;;20.72;48.31
60212;BME280;46079;48.686;15.598;2023-04-25T01:21:52;99076.31;;;20.73;48.42
60212;BME280;46079;48.686;15.598;2023-04-25T01:24:17;99067.59;;;20.73;48.27
60212;BME280;46079;48.686;15.598;2023-04-25T01:26:43;99070.41;;;20.71;48.41
60212;BME280;46079;48.686;15.598;2023-04-25T01:29:16;99075.50;;;20.73;48.38
60212;BME280;46079;48.686;15.598;2023-04-25T01:31:42;99074.69;;;20.72;48.44
60212;BME280;46079;48.686;15.598;2023-04-25T01:34:09;99070.25;;;20.73;48.41
60212;BME280;46079;48.686;15.598;2023-04-25T01:36:35;99069.41;;;20.72;48.42
60212;BME280;46079;48.686;15.598;2023-04-25T01:39:00;99057.09;;;20.73;48.18
60212;BME280;46079;48.686;15.598;2023-04-25T01:41:27;99064.84;;;20.74;48.29
60212;BME280;46079;48.686;15.598;2023-04-25T01:43:52;99068.59;;;20.72;48.39
60212;BME280;46079;48.686;15.598;2023-04-25T01:46:18;99054.47;;;20.73;48.57
60212;BME280;46079;48.686;15.598;2023-04-25T01:48:43;99063.16;;;20.73;48.59
60212;BME280;46079;48.686;15.598;2023-04-25T01:51:09;99068.44;;;20.73;48.43
60212;BME280;46079;48.686;15.598;2023-04-25T01:53:36;99060.53;;;20.73;48.49
60212;BME280;46079;48.686;15.598;2023-04-25T01:56:02;99053.66;;;20.72;48.71
60212;BME280;46079;48.686;15.598;2023-04-25T01:58:28;99065.81;;;20.73;48.63
60212;BME280;46079;48.686;15.598;2023-04-25T02:00:53;99050.03;;;20.73;48.65
60212;BME280;46079;48.686;15.598;2023-04-25T02:03:18;99056.13;;;20.74;48.57
60212;BME280;46079;48.686;15.598;2023-04-25T02:05:44;99055.28;;;20.73;48.40
60212;BME280;46079;48.686;15.598;2023-04-25T02:08:09;99053.31;;;20.75;48.45
60212;BME280;46079;48.686;15.598;2023-04-25T02:10:36;99051.69;;;20.74;48.66
60212;BME280;46079;48.686;15.598;2023-04-25T02:13:02;99049.06;;;20.74;48.40
60212;BME280;46079;48.686;15.598;2023-04-25T02:15:28;99047.41;;;20.73;48.61
60212;BME280;46079;48.686;15.598;2023-04-25T02:17:54;99054.31;;;20.74;48.56
60212;BME280;46079;48.686;15.598;2023-04-25T02:20:23;99054.31;;;20.74;48.68
60212;BME280;46079;48.686;15.598;2023-04-25T02:22:49;99057.78;;;20.75;48.42
60212;BME280;46079;48.686;15.598;2023-04-25T02:25:16;99051.69;;;20.74;48.63
60212;BME280;46079;48.686;15.598;2023-04-25T02:27:42;99049.06;;;20.74;48.90
60212;BME280;46079;48.686;15.598;2023-04-25T02:30:08;99051.69;;;20.74;48.75
60212;BME280;46079;48.686;15.598;2023-04-25T02:32:34;99044.63;;;20.75;48.52
60212;BME280;46079;48.686;15.598;2023-04-25T02:35:00;99049.88;;;20.75;48.73
60212;BME280;46079;48.686;15.598;2023-04-25T02:37:30;99055.00;;;20.76;48.50
60212;BME280;46079;48.686;15.598;2023-04-25T02:39:56;99050.88;;;20.74;48.72
60212;BME280;46079;48.686;15.598;2023-04-25T02:42:21;99058.59;;;20.75;48.62
60212;BME280;46079;48.686;15.598;2023-04-25T02:44:46;99059.41;;;20.76;48.66
60212;BME280;46079;48.686;15.598;2023-04-25T02:47:12;99053.31;;;20.75;48.47
60212;BME280;46079;48.686;15.598;2023-04-25T02:49:37;99042.81;;;20.75;48.55
60212;BME280;46079;48.686;15.598;2023-04-25T02:52:03;99048.06;;;20.75;48.62
60212;BME280;46079;48.686;15.598;2023-04-25T02:54:28;99049.75;;;20.76;48.65
60212;BME280;46079;48.686;15.598;2023-04-25T02:57:03;99057.78;;;20.75;48.66
60212;BME280;46079;48.686;15.598;2023-04-25T02:59:28;99048.06;;;20.75;48.63
60212;BME280;46079;48.686;15.598;2023-04-25T03:01:54;99052.50;;;20.75;48.66
60212;BME280;46079;48.686;15.598;2023-04-25T03:04:20;99052.50;;;20.75;48.69
60212;BME280;46079;48.686;15.598;2023-04-25T03:06:46;99046.44;;;20.74;48.90
60212;BME280;46079;48.686;15.598;2023-04-25T03:09:11;99046.44;;;20.74;49.18
60212;BME280;46079;48.686;15.598;2023-04-25T03:11:38;99047.25;;;20.75;48.86
60212;BME280;46079;48.686;15.598;2023-04-25T03:14:03;99048.06;;;20.75;48.90
60212;BME280;46079;48.686;15.598;2023-04-25T03:16:29;99045.44;;;20.75;48.69
60212;BME280;46079;48.686;15.598;2023-04-25T03:18:54;99050.69;;;20.75;48.62
60212;BME280;46079;48.686;15.598;2023-04-25T03:21:20;99054.16;;;20.76;48.81
60212;BME280;46079;48.686;15.598;2023-04-25T03:23:45;99057.78;;;20.75;49.17
60212;BME280;46079;48.686;15.598;2023-04-25T03:26:11;99053.31;;;20.75;48.80
60212;BME280;46079;48.686;15.598;2023-04-25T03:28:36;99059.41;;;20.76;48.74
60212;BME280;46079;48.686;15.598;2023-04-25T03:31:01;99053.50;;;20.74;49.12
60212;BME280;46079;48.686;15.598;2023-04-25T03:33:27;99062.03;;;20.76;48.97
60212;BME280;46079;48.686;15.598;2023-04-25T03:35:52;99062.03;;;20.76;49.14
60212;BME280;46079;48.686;15.598;2023-04-25T03:38:18;99066.47;;;20.75;49.07
60212;BME280;46079;48.686;15.598;2023-04-25T03:40:44;99068.28;;;20.75;49.02
60212;BME280;46079;48.686;15.598;2023-04-25T03:43:09;99070.75;;;20.76;48.98
60212;BME280;46079;48.686;15.598;2023-04-25T03:45:34;99075.16;;;20.76;49.31
60212;BME280;46079;48.686;15.598;2023-04-25T03:48:00;99074.34;;;20.75;49.16
60212;BME280;46079;48.686;15.598;2023-04-25T03:50:25;99077.97;;;20.74;49.09
60212;BME280;46079;48.686;15.598;2023-04-25T03:52:51;99082.25;;;20.75;49.30
60212;BME280;46079;48.686;15.598;2023-04-25T03:55:16;99084.03;;;20.75;49.04
60212;BME280;46079;48.686;15.598;2023-04-25T03:57:42;99084.19;;;20.73;49.30
60212;BME280;46079;48.686;15.598;2023-04-25T04:00:07;99084.03;;;20.75;49.10
60212;BME280;46079;48.686;15.598;2023-04-25T04:02:33;99077.97;;;20.74;49.11
60212;BME280;46079;48.686;15.598;2023-04-25T04:05:00;99081.56;;;20.73;49.13
60212;BME280;46079;48.686;15.598;2023-04-25T04:07:25;99082.41;;;20.74;49.25
60212;BME280;46079;48.686;15.598;2023-04-25T04:09:51;99090.31;;;20.74;49.23
60212;BME280;46079;48.686;15.598;2023-04-25T04:12:16;99093.75;;;20.74;49.35
60212;BME280;46079;48.686;15.598;2023-04-25T04:14:42;99091.13;;;20.74;49.21
60212;BME280;46079;48.686;15.598;2023-04-25T04:17:07;99091.94;;;20.75;49.31
60212;BME280;46079;48.686;15.598;2023-04-25T04:19:33;99095.38;;;20.75;49.18
60212;BME280;46079;48.686;15.598;2023-04-25T04:21:58;99089.31;;;20.75;49.18
60212;BME280;46079;48.686;15.598;2023-04-25T04:24:23;99091.13;;;20.74;49.32
60212;BME280;46079;48.686;15.598;2023-04-25T04:26:49;99092.75;;;20.75;49.44
60212;BME280;46079;48.686;15.598;2023-04-25T04:29:15;99097.19;;;20.75;49.31
60212;BME280;46079;48.686;15.598;2023-04-25T04:31:49;99095.38;;;20.75;49.19
60212;BME280;46079;48.686;15.598;2023-04-25T04:34:14;99103.94;;;20.77;49.10
60212;BME280;46079;48.686;15.598;2023-04-25T04:36:42;99098.00;;;20.75;49.22
60212;BME280;46079;48.686;15.598;2023-04-25T04:39:07;99096.19;;;20.76;49.25
60212;BME280;46079;48.686;15.598;2023-04-25T04:41:34;99092.75;;;20.75;49.37
60212;BME280;46079;48.686;15.598;2023-04-25T04:43:59;99092.75;;;20.75;49.28
60212;BME280;46079;48.686;15.598;2023-04-25T04:46:26;99104.94;;;20.76;49.29
60212;BME280;46079;48.686;15.598;2023-04-25T04:48:53;99099.66;;;20.76;49.23
60212;BME280;46079;48.686;15.598;2023-04-25T04:51:19;99103.25;;;20.75;49.62
60212;BME280;46079;48.686;15.598;2023-04-25T04:53:44;99098.00;;;20.75;49.45
60212;BME280;46079;48.686;15.598;2023-04-25T04:56:09;99107.69;;;20.75;49.21
60212;BME280;46079;48.686;15.598;2023-04-25T04:58:36;99105.88;;;20.75;48.38
60212;BME280;46079;48.686;15.598;2023-04-25T05:01:02;99097.19;;;20.75;48.27
60212;BME280;46079;48.686;15.598;2023-04-25T05:03:27;99106.72;;;20.76;49.26
60212;BME280;46079;48.686;15.598;2023-04-25T05:05:53;99103.25;;;20.75;49.46
60212;BME280;46079;48.686;15.598;2023-04-25T05:08:18;99103.25;;;20.75;49.42
60212;BME280;46079;48.686;15.598;2023-04-25T05:10:44;99102.44;;;20.75;49.09
60212;BME280;46079;48.686;15.598;2023-04-25T05:13:09;99102.59;;;20.73;49.33
60212;BME280;46079;48.686;15.598;2023-04-25T05:15:35;99095.38;;;20.75;49.31
60212;BME280;46079;48.686;15.598;2023-04-25T05:18:00;99090.31;;;20.74;49.43
60212;BME280;46079;48.686;15.598;2023-04-25T05:20:26;99098.00;;;20.75;49.17
60212;BME280;46079;48.686;15.598;2023-04-25T05:22:52;99101.63;;;20.74;49.64
60212;BME280;46079;48.686;15.598;2023-04-25T05:25:17;99098.00;;;20.75;49.25
60212;BME280;46079;48.686;15.598;2023-04-25T05:27:45;99111.16;;;20.75;49.29
60212;BME280;46079;48.686;15.598;2023-04-25T05:30:11;99111.16;;;20.75;47.44
60212;BME280;46079;48.686;15.598;2023-04-25T05:32:36;99104.59;;;20.71;43.50
60212;BME280;46079;48.686;15.598;2023-04-25T05:35:02;99109.50;;;20.66;41.25
60212;BME280;46079;48.686;15.598;2023-04-25T05:37:28;99112.75;;;20.60;40.01
60212;BME280;46079;48.686;15.598;2023-04-25T05:39:55;99101.19;;;20.53;39.20
60212;BME280;46079;48.686;15.598;2023-04-25T05:42:21;99109.03;;;20.44;38.90
60212;BME280;46079;48.686;15.598;2023-04-25T05:44:46;99105.25;;;20.39;38.59
60212;BME280;46079;48.686;15.598;2023-04-25T05:47:11;99108.66;;;20.31;38.48
60212;BME280;46079;48.686;15.598;2023-04-25T05:49:37;99102.88;;;20.28;39.59
60212;BME280;46079;48.686;15.598;2023-04-25T05:52:02;99112.56;;;20.27;40.57
60212;BME280;46079;48.686;15.598;2023-04-25T05:54:28;99105.34;;;20.29;42.58
60212;BME280;46079;48.686;15.598;2023-04-25T05:56:53;99109.16;;;20.35;43.02
60212;BME280;46079;48.686;15.598;2023-04-25T05:59:18;99101.63;;;20.40;44.12
60212;BME280;46079;48.686;15.598;2023-04-25T06:01:44;99103.78;;;20.44;44.37
60212;BME280;46079;48.686;15.598;2023-04-25T06:04:09;99106.44;;;20.53;45.14
60212;BME280;46079;48.686;15.598;2023-04-25T06:06:35;99109.44;;;20.58;45.37
60212;BME280;46079;48.686;15.598;2023-04-25T06:09:00;99100.94;;;20.64;45.33
60212;BME280;46079;48.686;15.598;2023-04-25T06:11:26;99100.47;;;20.69;45.28
60212;BME280;46079;48.686;15.598;2023-04-25T06:13:51;99093.75;;;20.74;45.35
60212;BME280;46079;48.686;15.598;2023-04-25T06:16:16;99100.16;;;20.80;45.42
60212;BME280;46079;48.686;15.598;2023-04-25T06:18:42;99099.69;;;20.84;45.10
60212;BME280;46079;48.686;15.598;2023-04-25T06:21:07;99087.03;;;20.88;45.11
60212;BME280;46079;48.686;15.598;2023-04-25T06:23:33;99085.91;;;20.91;44.98
60212;BME280;46079;48.686;15.598;2023-04-25T06:25:58;99088.88;;;20.96;44.76
60212;BME280;46079;48.686;15.598;2023-04-25T06:28:24;99085.09;;;20.98;44.92
60212;BME280;46079;48.686;15.598;2023-04-25T06:30:50;99091.84;;;21.01;44.76
60212;BME280;46079;48.686;15.598;2023-04-25T06:33:15;99088.88;;;21.04;44.76
60212;BME280;46079;48.686;15.598;2023-04-25T06:35:41;99097.41;;;21.06;44.80
60212;BME280;46079;48.686;15.598;2023-04-25T06:38:06;99087.56;;;21.08;44.66
60212;BME280;46079;48.686;15.598;2023-04-25T06:40:32;99092.66;;;21.09;44.64
60212;BME280;46079;48.686;15.598;2023-04-25T06:42:57;99096.78;;;21.12;44.43
60212;BME280;46079;48.686;15.598;2023-04-25T06:45:22;99085.28;;;21.13;44.54
60212;BME280;46079;48.686;15.598;2023-04-25T06:47:48;99082.63;;;21.13;44.37
60212;BME280;46079;48.686;15.598;2023-04-25T06:50:13;99083.97;;;21.17;44.45
60212;BME280;46079;48.686;15.598;2023-04-25T06:52:39;99075.09;;;21.18;44.60
60212;BME280;46079;48.686;15.598;2023-04-25T06:55:04;99076.56;;;21.21;44.75
60212;BME280;46079;48.686;15.598;2023-04-25T06:57:30;99074.59;;;21.23;44.53
60212;BME280;46079;48.686;15.598;2023-04-25T06:59:56;99079.69;;;21.24;44.54
60212;BME280;46079;48.686;15.598;2023-04-25T07:02:21;99069.97;;;21.25;44.68
60212;BME280;46079;48.686;15.598;2023-04-25T07:04:47;99073.13;;;21.28;44.86
60212;BME280;46079;48.686;15.598;2023-04-25T07:07:13;99069.50;;;21.29;44.70
60212;BME280;46079;48.686;15.598;2023-04-25T07:09:38;99069.50;;;21.29;44.66
60212;BME280;46079;48.686;15.598;2023-04-25T07:12:04;99071.81;;;21.32;44.66
60212;BME280;46079;48.686;15.598;2023-04-25T07:14:29;99070.81;;;21.33;44.64
60212;BME280;46079;48.686;15.598;2023-04-25T07:16:54;99059.31;;;21.35;44.57
60212;BME280;46079;48.686;15.598;2023-04-25T07:19:22;99066.22;;;21.36;44.75
60212;BME280;46079;48.686;15.598;2023-04-25T07:21:49;99064.41;;;21.36;44.64
60212;BME280;46079;48.686;15.598;2023-04-25T07:24:14;99059.00;;;21.38;44.74
60212;BME280;46079;48.686;15.598;2023-04-25T07:26:40;99061.66;;;21.38;44.69
60212;BME280;46079;48.686;15.598;2023-04-25T07:29:05;99059.81;;;21.38;44.60
60212;BME280;46079;48.686;15.598;2023-04-25T07:31:30;99061.50;;;21.39;44.73
60212;BME280;46079;48.686;15.598;2023-04-25T07:33:56;99063.13;;;21.40;44.80
60212;BME280;46079;48.686;15.598;2023-04-25T07:36:21;99059.69;;;21.40;44.20
60212;BME280;46079;48.686;15.598;2023-04-25T07:38:47;99063.94;;;21.41;44.74
60212;BME280;46079;48.686;15.598;2023-04-25T07:41:12;99060.31;;;21.42;44.63
60212;BME280;46079;48.686;15.598;2023-04-25T07:43:37;99061.16;;;21.42;44.62
60212;BME280;46079;48.686;15.598;2023-04-25T07:46:03;99056.72;;;21.43;44.69
60212;BME280;46079;48.686;15.598;2023-04-25T07:48:29;99047.81;;;21.44;44.91
60212;BME280;46079;48.686;15.598;2023-04-25T07:50:54;99041.75;;;21.43;44.73
60212;BME280;46079;48.686;15.598;2023-04-25T07:53:20;99040.75;;;21.44;44.75
60212;BME280;46079;48.686;15.598;2023-04-25T07:55:45;99038.13;;;21.44;44.77
60212;BME280;46079;48.686;15.598;2023-04-25T07:58:11;99028.25;;;21.46;44.86
60212;BME280;46079;48.686;15.598;2023-04-25T08:00:37;99036.97;;;21.47;44.95
60212;BME280;46079;48.686;15.598;2023-04-25T08:03:03;99026.44;;;21.47;44.92
60212;BME280;46079;48.686;15.598;2023-04-25T08:05:29;99040.44;;;21.47;44.96
60212;BME280;46079;48.686;15.598;2023-04-25T08:07:54;99031.69;;;21.47;45.04
60212;BME280;46079;48.686;15.598;2023-04-25T08:10:20;99041.25;;;21.48;44.85
60212;BME280;46079;48.686;15.598;2023-04-25T08:12:46;99029.06;;;21.47;44.70
60212;BME280;46079;48.686;15.598;2023-04-25T08:15:11;99028.09;;;21.48;44.58
60212;BME280;46079;48.686;15.598;2023-04-25T08:17:39;99031.69;;;21.47;44.90
60212;BME280;46079;48.686;15.598;2023-04-25T08:20:04;99031.69;;;21.47;44.44
60212;BME280;46079;48.686;15.598;2023-04-25T08:22:31;99040.59;;;21.46;44.78
60212;BME280;46079;48.686;15.598;2023-04-25T08:24:56;99018.72;;;21.45;44.78
60212;BME280;46079;48.686;15.598;2023-04-25T08:27:22;99022.31;;;21.44;44.90
60212;BME280;46079;48.686;15.598;2023-04-25T08:29:47;99020.69;;;21.43;44.76
60212;BME280;46079;48.686;15.598;2023-04-25T08:32:13;99021.50;;;21.44;44.71
60212;BME280;46079;48.686;15.598;2023-04-25T08:34:39;99022.66;;;21.41;44.54
60212;BME280;46079;48.686;15.598;2023-04-25T08:37:07;99015.91;;;21.39;44.63
60212;BME280;46079;48.686;15.598;2023-04-25T08:39:33;99015.25;;;21.37;44.48
60212;BME280;46079;48.686;15.598;2023-04-25T08:41:59;99027.56;;;21.36;44.56
60212;BME280;46079;48.686;15.598;2023-04-25T08:44:26;99023.47;;;21.33;44.66
60212;BME280;46079;48.686;15.598;2023-04-25T08:46:52;99020.81;;;21.33;44.52
60212;BME280;46079;48.686;15.598;2023-04-25T08:49:17;99015.75;;;21.32;44.74
60212;BME280;46079;48.686;15.598;2023-04-25T08:51:46;99016.75;;;21.31;44.54
60212;BME280;46079;48.686;15.598;2023-04-25T08:54:14;99012.63;;;21.28;44.67
60212;BME280;46079;48.686;15.598;2023-04-25T08:56:47;99014.25;;;21.29;44.76
60212;BME280;46079;48.686;15.598;2023-04-25T08:59:13;99002.13;;;21.28;44.41
60212;BME280;46079;48.686;15.598;2023-04-25T09:01:39;99010.81;;;21.29;44.60
60212;BME280;46079;48.686;15.598;2023-04-25T09:04:05;99010.97;;;21.27;44.62
60212;BME280;46079;48.686;15.598;2023-04-25T09:06:30;99009.34;;;21.26;44.74
60212;BME280;46079;48.686;15.598;2023-04-25T09:09:04;99014.59;;;21.26;44.63
60212;BME280;46079;48.686;15.598;2023-04-25T09:11:31;99019.03;;;21.26;44.74
60212;BME280;46079;48.686;15.598;2023-04-25T09:14:17;99008.53;;;21.26;44.90
60212;BME280;46079;48.686;15.598;2023-04-25T09:19:31;99017.56;;;21.23;44.83
60212;BME280;46079;48.686;15.598;2023-04-25T09:21:58;99006.22;;;21.23;44.91
60212;BME280;46079;48.686;15.598;2023-04-25T09:24:50;99018.53;;;21.22;44.92
60212;BME280;46079;48.686;15.598;2023-04-25T09:27:20;99011.63;;;21.21;45.09
60212;BME280;46079;48.686;15.598;2023-04-25T09:29:57;99010.00;;;21.20;44.82
60212;BME280;46079;48.686;15.598;2023-04-25T09:32:23;99008.34;;;21.19;45.05
60212;BME280;46079;48.686;15.598;2023-04-25T09:34:53;99011.78;;;21.20;45.35
60212;BME280;46079;48.686;15.598;2023-04-25T09:37:24;99010.16;;;21.19;45.05
60212;BME280;46079;48.686;15.598;2023-04-25T09:39:59;99010.34;;;21.17;45.08
60212;BME280;46079;48.686;15.598;2023-04-25T09:42:28;99008.69;;;21.16;44.97
60212;BME280;46079;48.686;15.598;2023-04-25T09:44:57;99001.78;;;21.15;45.22
60212;BME280;46079;48.686;15.598;2023-04-25T09:47:26;99013.28;;;21.14;45.10
60212;BME280;46079;48.686;15.598;2023-04-25T09:49:52;99009.81;;;21.14;45.16
60212;BME280;46079;48.686;15.598;2023-04-25T09:52:20;99027.41;;;21.13;45.13
60212;BME280;46079;48.686;15.598;2023-04-25T09:54:47;99025.78;;;21.12;45.21
60212;BME280;46079;48.686;15.598;2023-04-25T09:57:18;99024.13;;;21.11;45.19
60212;BME280;46079;48.686;15.598;2023-04-25T09:59:46;99027.56;;;21.12;45.06
60212;BME280;46079;48.686;15.598;2023-04-25T10:02:14;99027.56;;;21.12;45.12
60212;BME280;46079;48.686;15.598;2023-04-25T10:04:41;99026.75;;;21.11;45.26
60212;BME280;46079;48.686;15.598;2023-04-25T10:07:07;99027.75;;;21.10;45.14
60212;BME280;46079;48.686;15.598;2023-04-25T10:09:36;99027.75;;;21.10;45.40
60212;BME280;46079;48.686;15.598;2023-04-25T10:12:07;99025.13;;;21.10;45.25
60212;BME280;46079;48.686;15.598;2023-04-25T10:14:33;99035.63;;;21.10;45.25
60212;BME280;46079;48.686;15.598;2023-04-25T10:16:59;99053.38;;;21.08;45.17
60212;BME280;46079;48.686;15.598;2023-04-25T10:19:27;99058.63;;;21.08;45.33
60212;BME280;46079;48.686;15.598;2023-04-25T10:22:14;99062.25;;;21.07;45.27
60212;BME280;46079;48.686;15.598;2023-04-25T10:24:41;99065.84;;;21.06;45.20
60212;BME280;46079;48.686;15.598;2023-04-25T10:27:07;99054.38;;;21.07;45.06
60212;BME280;46079;48.686;15.598;2023-04-25T10:29:33;99048.44;;;21.05;45.29
60212;BME280;46079;48.686;15.598;2023-04-25T10:31:58;99044.00;;;21.05;45.37
60212;BME280;46079;48.686;15.598;2023-04-25T10:34:37;99041.38;;;21.05;45.52
60212;BME280;46079;48.686;15.598;2023-04-25T10:37:04;99020.34;;;21.05;45.45
60212;BME280;46079;48.686;15.598;2023-04-25T10:39:29;99022.97;;;21.05;45.55
60212;BME280;46079;48.686;15.598;2023-04-25T10:41:58;99014.28;;;21.05;45.50
60212;BME280;46079;48.686;15.598;2023-04-25T10:44:27;99019.53;;;21.05;45.49
60212;BME280;46079;48.686;15.598;2023-04-25T10:46:58;99020.34;;;21.05;45.69
60212;BME280;46079;48.686;15.598;2023-04-25T10:49:32;99018.53;;;21.06;45.54
60212;BME280;46079;48.686;15.598;2023-04-25T10:52:11;99017.56;;;21.07;45.62
60212;BME280;46079;48.686;15.598;2023-04-25T10:54:56;99011.50;;;21.06;45.44
60212;BME280;46079;48.686;15.598;2023-04-25T10:57:48;99010.50;;;21.07;45.47
60212;BME280;46079;48.686;15.598;2023-04-25T11:00:16;98996.53;;;21.07;45.47
60212;BME280;46079;48.686;15.598;2023-04-25T11:02:44;99001.78;;;21.07;45.73
60212;BME280;46079;48.686;15.598;2023-04-25T11:05:35;99000.13;;;21.06;45.52
60212;BME280;46079;48.686;15.598;2023-04-25T11:08:01;99003.75;;;21.05;45.62
60212;BME280;46079;48.686;15.598;2023-04-25T11:10:30;98994.06;;;21.05;45.67
60212;BME280;46079;48.686;15.598;2023-04-25T11:12:57;98989.59;;;21.06;45.38
60212;BME280;46079;48.686;15.598;2023-04-25T11:15:23;98988.78;;;21.05;45.70
60212;BME280;46079;48.686;15.598;2023-04-25T11:17:51;98988.78;;;21.05;45.34
60212;BME280;46079;48.686;15.598;2023-04-25T11:20:17;98980.91;;;21.05;45.77
60212;BME280;46079;48.686;15.598;2023-04-25T11:22:45;98981.72;;;21.06;45.75
60212;BME280;46079;48.686;15.598;2023-04-25T11:25:12;98977.31;;;21.06;45.61
60212;BME280;46079;48.686;15.598;2023-04-25T11:27:58;98977.31;;;21.06;45.60
60212;BME280;46079;48.686;15.598;2023-04-25T11:30:26;98984.34;;;21.06;45.82
60212;BME280;46079;48.686;15.598;2023-04-25T11:32:52;98981.72;;;21.06;45.69
60212;BME280;46079;48.686;15.598;2023-04-25T11:35:19;98979.94;;;21.06;45.71
60212;BME280;46079;48.686;15.598;2023-04-25T11:37:45;98982.72;;;21.05;45.49
60212;BME280;46079;48.686;15.598;2023-04-25T11:40:11;98980.91;;;21.05;45.62
60212;BME280;46079;48.686;15.598;2023-04-25T11:42:38;98987.16;;;21.04;45.38
60212;BME280;46079;48.686;15.598;2023-04-25T11:45:04;98990.75;;;21.03;45.31
60212;BME280;46079;48.686;15.598;2023-04-25T11:47:31;98999.50;;;21.04;45.32
60212;BME280;46079;48.686;15.598;2023-04-25T11:50:01;99010.00;;;21.04;45.46
60212;BME280;46079;48.686;15.598;2023-04-25T11:52:43;99009.34;;;21.02;45.13
60212;BME280;46079;48.686;15.598;2023-04-25T11:55:19;99001.47;;;21.02;45.10
60212;BME280;46079;48.686;15.598;2023-04-25T11:57:47;99024.31;;;21.01;44.89
60212;BME280;46079;48.686;15.598;2023-04-25T12:00:19;99041.88;;;21.01;45.19
60212;BME280;46079;48.686;15.598;2023-04-25T12:02:47;99037.59;;;21.00;45.48
60212;BME280;46079;48.686;15.598;2023-04-25T12:05:15;99042.03;;;20.99;45.50
60212;BME280;46079;48.686;15.598;2023-04-25T12:07:41;99044.66;;;20.99;45.33
60212;BME280;46079;48.686;15.598;2023-04-25T12:10:12;99041.22;;;20.99;45.25
60212;BME280;46079;48.686;15.598;2023-04-25T12:12:41;99037.78;;;20.98;45.29
60212;BME280;46079;48.686;15.598;2023-04-25T12:15:18;99032.53;;;20.98;45.22
60212;BME280;46079;48.686;15.598;2023-04-25T12:17:49;99025.59;;;20.97;45.32
60212;BME280;46079;48.686;15.598;2023-04-25T12:20:17;99027.41;;;20.97;45.16
60212;BME280;46079;48.686;15.598;2023-04-25T12:22:44;99035.16;;;20.98;45.10
60212;BME280;46079;48.686;15.598;2023-04-25T12:25:33;99026.41;;;20.98;45.09
60212;BME280;46079;48.686;15.598;2023-04-25T12:28:20;99015.09;;;20.97;45.27
60212;BME280;46079;48.686;15.598;2023-04-25T12:33:17;99016.91;;;20.97;45.15
60212;BME280;46079;48.686;15.598;2023-04-25T12:35:43;99015.25;;;20.96;45.19
60212;BME280;46079;48.686;15.598;2023-04-25T12:38:08;99013.44;;;20.96;45.28
60212;BME280;46079;48.686;15.598;2023-04-25T12:40:33;99009.00;;;20.97;45.75
60212;BME280;46079;48.686;15.598;2023-04-25T12:42:59;99007.19;;;20.97;45.23
60212;BME280;46079;48.686;15.598;2023-04-25T12:45:24;99007.19;;;20.97;45.07
60212;BME280;46079;48.686;15.598;2023-04-25T12:47:50;99005.38;;;20.98;45.29
60212;BME280;46079;48.686;15.598;2023-04-25T12:50:16;98999.31;;;20.97;45.16
60212;BME280;46079;48.686;15.598;2023-04-25T12:52:41;99002.75;;;20.98;45.25
60212;BME280;46079;48.686;15.598;2023-04-25T12:55:07;99000.13;;;20.98;45.21